createdAt,value
2023-01-19T00:00:24.501Z,98966.16
2023-01-19T00:02:51.213Z,98967.02
2023-01-19T00:05:17.928Z,98965.80
2023-01-19T00:07:45.648Z,98969.17
2023-01-19T00:10:12.287Z,98975.14
2023-01-19T00:12:39.094Z,98977.36
2023-01-19T00:15:06.591Z,98981.83
2023-01-19T00:17:33.485Z,98990.48
2023-01-19T00:20:00.705Z,98998.23
2023-01-19T00:22:27.593Z,99004.01
2023-01-19T00:24:54.377Z,99004.96
2023-01-19T00:27:21.357Z,99004.27
2023-01-19T00:29:48.021Z,98994.63
2023-01-19T00:32:17.174Z,98985.52
2023-01-19T00:34:48.790Z,98985.44
2023-01-19T00:37:16.696Z,99000.55
2023-01-19T00:39:44.552Z,99009.03
2023-01-19T00:42:30.752Z,99017.42
2023-01-19T00:44:57.529Z,99019.05
2023-01-19T00:47:24.483Z,99015.79
2023-01-19T00:49:51.381Z,99013.45
2023-01-19T00:52:18.548Z,99017.48
2023-01-19T00:54:45.658Z,99018.58
2023-01-19T00:57:12.748Z,99013.52
2023-01-19T00:59:39.531Z,99015.84
2023-01-19T01:02:06.295Z,99018.20
2023-01-19T01:04:33.314Z,99016.64
2023-01-19T01:07:00.027Z,99004.25
2023-01-19T01:09:29.388Z,98999.13
2023-01-19T01:11:56.177Z,98997.35
2023-01-19T01:14:23.659Z,99001.21
2023-01-19T01:16:50.744Z,99013.82
2023-01-19T01:19:17.475Z,99010.83
2023-01-19T01:21:44.928Z,98998.76
2023-01-19T01:24:11.771Z,99005.71
2023-01-19T01:26:38.944Z,99020.63
2023-01-19T01:29:05.898Z,99023.00
2023-01-19T01:31:32.786Z,99019.52
2023-01-19T01:33:59.567Z,99021.96
2023-01-19T01:36:31.080Z,99027.59
2023-01-19T01:38:58.380Z,99025.64
2023-01-19T01:43:54.200Z,99033.86
2023-01-19T01:46:20.996Z,99050.50
2023-01-19T01:48:52.154Z,99058.20
2023-01-19T01:51:26.137Z,99053.27
2023-01-19T01:54:20.806Z,99044.34
2023-01-19T01:56:49.127Z,99058.89
2023-01-19T01:59:29.869Z,99065.42
2023-01-19T02:02:17.013Z,99067.41
2023-01-19T02:04:50.491Z,99079.39
2023-01-19T02:08:04.112Z,99080.08
2023-01-19T02:10:50.357Z,99078.29
2023-01-19T02:13:23.279Z,99071.34
2023-01-19T02:15:55.009Z,99074.06
2023-01-19T02:18:22.717Z,99068.92
2023-01-19T02:21:08.584Z,99059.22
2023-01-19T02:23:39.400Z,99051.81
2023-01-19T02:26:07.324Z,99051.08
2023-01-19T02:28:34.117Z,99055.63
2023-01-19T02:31:00.988Z,99057.05
2023-01-19T02:33:27.872Z,99055.94
2023-01-19T02:35:54.654Z,99054.91
2023-01-19T02:38:21.505Z,99056.70
2023-01-19T02:40:48.369Z,99060.88
2023-01-19T02:43:15.171Z,99059.55
2023-01-19T02:45:43.318Z,99057.27
2023-01-19T02:48:10.222Z,99054.23
2023-01-19T02:50:38.407Z,99036.45
2023-01-19T02:53:34.245Z,99032.02
2023-01-19T02:56:24.923Z,99036.15
2023-01-19T02:59:15.831Z,99026.42
2023-01-19T03:02:01.940Z,99033.69
2023-01-19T03:04:45.789Z,99043.20
2023-01-19T03:07:28.220Z,99041.52
2023-01-19T03:10:28.133Z,99038.27
2023-01-19T03:13:16.947Z,99054.77
2023-01-19T03:15:48.222Z,99058.55
2023-01-19T03:18:16.199Z,99063.77
2023-01-19T03:20:44.143Z,99074.98
2023-01-19T03:23:11.841Z,99076.95
2023-01-19T03:25:41.305Z,99083.50
2023-01-19T03:28:08.159Z,99075.04
2023-01-19T03:30:40.384Z,99075.52
2023-01-19T03:33:16.575Z,99075.84
2023-01-19T03:35:49.652Z,99080.27
2023-01-19T03:38:17.416Z,99087.88
2023-01-19T03:40:44.374Z,99092.10
2023-01-19T03:43:11.166Z,99092.11
2023-01-19T03:45:38.430Z,99089.83
2023-01-19T03:48:05.857Z,99087.41
2023-01-19T03:50:32.713Z,99081.34
2023-01-19T03:53:08.738Z,99085.84
2023-01-19T03:55:35.838Z,99086.38
2023-01-19T03:58:02.696Z,99089.33
2023-01-19T04:00:29.552Z,99080.88
2023-01-19T04:02:56.445Z,99076.36
2023-01-19T04:05:23.684Z,99072.79
2023-01-19T04:07:51.795Z,99074.16
2023-01-19T04:10:18.926Z,99074.07
2023-01-19T04:12:45.884Z,99074.34
2023-01-19T04:15:13.044Z,99085.52
2023-01-19T04:17:40.056Z,99089.27
2023-01-19T04:20:07.312Z,99094.48
2023-01-19T04:22:35.418Z,99095.11
2023-01-19T04:25:03.207Z,99103.98
2023-01-19T04:27:30.021Z,99113.91
2023-01-19T04:29:57.159Z,99116.52
2023-01-19T04:32:24.037Z,99113.20
2023-01-19T04:34:50.902Z,99113.75
2023-01-19T04:37:17.900Z,99113.71
2023-01-19T04:39:44.727Z,99117.56
2023-01-19T04:42:11.629Z,99116.32
2023-01-19T04:44:38.669Z,99111.85
2023-01-19T04:47:05.586Z,99107.86
2023-01-19T04:49:32.524Z,99106.10
2023-01-19T04:51:59.606Z,99093.52
2023-01-19T04:54:27.152Z,99097.95
2023-01-19T04:56:54.050Z,99108.39
2023-01-19T04:59:21.637Z,99110.48
2023-01-19T05:01:48.476Z,99107.34
2023-01-19T05:04:15.809Z,99111.36
2023-01-19T05:06:42.592Z,99108.92
2023-01-19T05:09:11.850Z,99108.21
2023-01-19T05:11:38.933Z,99111.23
2023-01-19T05:14:05.967Z,99118.63
2023-01-19T05:16:33.809Z,99118.40
2023-01-19T05:19:00.694Z,99115.54
2023-01-19T05:21:28.339Z,99115.20
2023-01-19T05:23:55.161Z,99113.48
2023-01-19T05:26:22.097Z,99120.91
2023-01-19T05:28:50.439Z,99129.10
2023-01-19T05:31:18.763Z,99113.27
2023-01-19T05:33:46.448Z,99111.73
2023-01-19T05:36:13.472Z,99120.11
2023-01-19T05:38:40.425Z,99118.31
2023-01-19T05:41:07.271Z,99120.95
2023-01-19T05:43:34.206Z,99133.77
2023-01-19T05:46:01.115Z,99122.06
2023-01-19T05:48:28.116Z,99123.08
2023-01-19T05:50:58.186Z,99128.83
2023-01-19T05:53:25.459Z,99125.00
2023-01-19T05:55:52.502Z,99123.70
2023-01-19T05:58:19.377Z,99127.33
2023-01-19T06:00:46.116Z,99119.66
2023-01-19T06:03:13.445Z,99113.98
2023-01-19T06:05:40.592Z,99119.65
2023-01-19T06:08:07.414Z,99112.95
2023-01-19T06:10:34.702Z,99120.59
2023-01-19T06:13:01.891Z,99116.90
2023-01-19T06:15:29.898Z,99107.33
2023-01-19T06:17:56.735Z,99082.38
2023-01-19T06:20:23.598Z,99074.08
2023-01-19T06:22:50.435Z,99054.21
2023-01-19T06:25:17.389Z,99029.14
2023-01-19T06:27:45.260Z,99008.69
2023-01-19T06:30:13.771Z,99004.15
2023-01-19T06:32:40.596Z,99005.48
2023-01-19T06:35:08.154Z,99002.19
2023-01-19T06:37:35.272Z,98992.94
2023-01-19T06:40:02.723Z,98990.75
2023-01-19T06:42:29.835Z,98984.08
2023-01-19T06:44:56.733Z,98978.00
2023-01-19T06:47:23.678Z,98985.95
2023-01-19T06:49:50.602Z,98984.09
2023-01-19T06:52:18.592Z,98985.96
2023-01-19T06:54:46.252Z,98985.91
2023-01-19T06:57:14.558Z,98978.59
2023-01-19T06:59:41.449Z,98976.10
2023-01-19T07:02:26.141Z,98970.89
2023-01-19T07:04:56.338Z,98969.09
2023-01-19T07:07:23.388Z,98965.11
2023-01-19T07:09:53.794Z,98964.11
2023-01-19T07:12:22.151Z,98973.24
2023-01-19T07:14:49.755Z,98977.21
2023-01-19T07:17:19.544Z,98983.18
2023-01-19T07:19:46.983Z,98997.38
2023-01-19T07:22:13.916Z,99000.27
2023-01-19T07:24:41.523Z,98998.77
2023-01-19T07:27:08.688Z,98999.57
2023-01-19T07:29:35.471Z,98998.56
2023-01-19T07:32:02.301Z,99002.61
2023-01-19T07:34:29.549Z,98996.14
2023-01-19T07:36:56.579Z,99002.48
2023-01-19T07:39:23.472Z,98995.92
2023-01-19T07:41:50.689Z,98986.76
2023-01-19T07:44:18.154Z,98986.98
2023-01-19T07:46:44.987Z,98996.45
2023-01-19T07:49:12.742Z,99001.25
2023-01-19T07:51:39.630Z,98987.89
2023-01-19T07:54:08.787Z,98982.79
2023-01-19T07:56:35.962Z,98983.28
2023-01-19T07:59:02.746Z,98979.70
2023-01-19T08:01:29.962Z,98995.17
2023-01-19T08:04:45.656Z,98988.93
2023-01-19T08:07:12.535Z,98987.99
2023-01-19T08:09:39.467Z,98992.95
2023-01-19T08:12:06.343Z,98991.11
2023-01-19T08:14:34.433Z,98985.93
2023-01-19T08:17:01.897Z,98987.90
2023-01-19T08:19:28.788Z,98985.52
2023-01-19T08:21:56.546Z,98983.52
2023-01-19T08:24:25.566Z,98977.30
2023-01-19T08:26:55.992Z,98994.60
2023-01-19T08:29:22.766Z,99006.80
2023-01-19T08:31:49.777Z,99021.38
2023-01-19T08:34:16.738Z,99027.14
2023-01-19T08:36:43.556Z,99037.02
2023-01-19T08:39:12.362Z,99032.16
2023-01-19T08:41:39.306Z,99026.74
2023-01-19T08:44:06.242Z,99023.39
2023-01-19T08:46:33.135Z,99026.70
2023-01-19T08:49:00.031Z,99037.08
2023-01-19T08:51:26.995Z,99043.11
2023-01-19T08:53:53.839Z,99041.31
2023-01-19T08:56:20.910Z,99043.12
2023-01-19T08:58:59.447Z,99038.40
2023-01-19T09:01:34.519Z,99042.89
2023-01-19T09:04:01.473Z,99037.84
2023-01-19T09:06:28.491Z,99036.46
2023-01-19T09:08:55.264Z,99038.20
2023-01-19T09:11:22.116Z,99039.29
2023-01-19T09:13:49.178Z,99042.55
2023-01-19T09:16:16.264Z,99037.75
2023-01-19T09:18:43.138Z,99039.52
2023-01-19T09:21:09.985Z,99041.98
2023-01-19T09:23:36.821Z,99037.95
2023-01-19T09:26:04.494Z,99029.26
2023-01-19T09:28:31.335Z,99028.67
2023-01-19T09:30:58.583Z,99014.77
2023-01-19T09:33:25.527Z,99008.61
2023-01-19T09:35:52.415Z,99008.20
2023-01-19T09:38:20.131Z,99004.89
2023-01-19T09:40:52.604Z,99005.77
2023-01-19T09:43:31.539Z,98995.89
2023-01-19T09:45:59.114Z,98992.64
2023-01-19T09:48:30.854Z,98985.52
2023-01-19T09:51:02.163Z,98972.50
2023-01-19T09:53:45.617Z,98980.63
2023-01-19T09:56:14.572Z,98972.65
2023-01-19T09:58:41.835Z,98960.73
2023-01-19T10:01:22.899Z,98968.71
2023-01-19T10:03:50.610Z,98963.11
2023-01-19T10:06:17.458Z,98958.10
2023-01-19T10:08:52.761Z,98948.02
2023-01-19T10:11:52.561Z,98939.59
2023-01-19T10:14:34.441Z,98934.75
2023-01-19T10:17:36.076Z,98929.46
2023-01-19T10:20:03.936Z,98921.90
2023-01-19T10:22:30.781Z,98922.27
2023-01-19T10:25:02.203Z,98921.64
2023-01-19T10:27:30.767Z,98911.30
2023-01-19T10:29:58.241Z,98911.61
2023-01-19T10:32:46.825Z,98922.27
2023-01-19T10:35:23.430Z,98911.95
2023-01-19T10:37:56.500Z,98922.41
2023-01-19T10:40:27.906Z,98911.85
2023-01-19T10:42:54.802Z,98911.38
2023-01-19T10:45:24.249Z,98903.02
2023-01-19T10:47:53.279Z,98899.56
2023-01-19T10:50:37.841Z,98888.63
2023-01-19T10:53:06.270Z,98892.89
2023-01-19T10:55:38.281Z,98887.86
2023-01-19T10:58:06.566Z,98886.29
2023-01-19T11:00:39.169Z,98881.92
2023-01-19T11:03:40.412Z,98873.94
2023-01-19T11:06:15.866Z,98873.54
2023-01-19T11:08:44.536Z,98871.98
2023-01-19T11:11:12.610Z,98873.55
2023-01-19T11:13:40.174Z,98867.88
2023-01-19T11:16:23.133Z,98868.25
2023-01-19T11:18:51.952Z,98865.39
2023-01-19T11:21:18.759Z,98852.81
2023-01-19T11:23:47.394Z,98857.40
2023-01-19T11:26:24.997Z,98854.53
2023-01-19T11:28:54.727Z,98862.45
2023-01-19T11:31:27.830Z,98862.81
2023-01-19T11:33:56.983Z,98861.91
2023-01-19T11:36:36.985Z,98851.44
2023-01-19T11:39:24.434Z,98842.23
2023-01-19T11:41:53.635Z,98843.23
2023-01-19T11:44:33.688Z,98841.69
2023-01-19T11:47:02.553Z,98842.80
2023-01-19T11:49:40.587Z,98839.42
2023-01-19T11:52:21.359Z,98836.02
2023-01-19T11:54:53.310Z,98833.79
2023-01-19T11:57:20.905Z,98835.90
2023-01-19T11:59:47.797Z,98839.27
2023-01-19T12:02:31.269Z,98840.67
2023-01-19T12:05:00.402Z,98842.10
2023-01-19T12:07:30.430Z,98844.92
2023-01-19T12:10:06.159Z,98846.61
2023-01-19T12:12:35.306Z,98827.24
2023-01-19T12:15:08.342Z,98826.52
2023-01-19T12:17:37.032Z,98832.13
2023-01-19T12:20:07.343Z,98836.39
2023-01-19T12:22:39.092Z,98847.88
2023-01-19T12:25:22.898Z,98835.32
2023-01-19T12:27:49.749Z,98829.12
2023-01-19T12:30:21.465Z,98830.86
2023-01-19T12:32:48.398Z,98828.67
2023-01-19T12:35:53.105Z,98826.27
2023-01-19T12:38:40.803Z,98824.07
2023-01-19T12:41:26.571Z,98830.28
2023-01-19T12:44:12.096Z,98835.62
2023-01-19T12:46:43.031Z,98842.18
2023-01-19T12:49:38.136Z,98846.94
2023-01-19T12:52:20.555Z,98861.02
2023-01-19T12:54:55.049Z,98858.16
2023-01-19T12:57:48.109Z,98867.11
2023-01-19T13:00:24.135Z,98859.88
2023-01-19T13:03:17.392Z,98846.77
2023-01-19T13:05:44.183Z,98857.86
2023-01-19T13:08:13.915Z,98846.34
2023-01-19T13:10:59.207Z,98835.54
2023-01-19T13:13:38.731Z,98835.27
2023-01-19T13:16:21.277Z,98835.80
2023-01-19T13:18:53.383Z,98844.61
2023-01-19T13:21:39.701Z,98837.20
2023-01-19T13:24:15.038Z,98840.23
2023-01-19T13:27:00.342Z,98846.79
2023-01-19T13:29:38.085Z,98841.56
2023-01-19T13:32:07.070Z,98854.97
2023-01-19T13:34:47.037Z,98855.98
2023-01-19T13:37:26.125Z,98869.30
2023-01-19T13:39:53.912Z,98867.92
2023-01-19T13:42:32.974Z,98873.48
2023-01-19T13:45:37.017Z,98882.86
2023-01-19T13:48:08.852Z,98879.42
2023-01-19T13:50:40.083Z,98859.14
2023-01-19T13:53:20.729Z,98857.35
2023-01-19T13:55:50.422Z,98860.26
2023-01-19T13:58:23.576Z,98871.52
2023-01-19T14:01:58.147Z,98878.65
2023-01-19T14:04:25.983Z,98877.86
2023-01-19T14:06:55.780Z,98882.73
2023-01-19T14:09:23.111Z,98885.79
2023-01-19T14:12:14.083Z,98890.59
2023-01-19T14:14:42.385Z,98879.94
2023-01-19T14:17:27.050Z,98891.25
2023-01-19T14:19:57.671Z,98892.13
2023-01-19T14:22:57.188Z,98893.74
2023-01-19T14:25:28.231Z,98882.85
2023-01-19T14:28:29.906Z,98888.64
2023-01-19T14:31:01.265Z,98901.12
2023-01-19T14:33:46.114Z,98901.94
2023-01-19T14:36:28.361Z,98899.11
2023-01-19T14:38:57.221Z,98903.32
2023-01-19T14:41:49.234Z,98910.13
2023-01-19T14:44:22.824Z,98918.41
2023-01-19T14:46:49.615Z,98908.94
2023-01-19T14:49:30.767Z,98921.15
2023-01-19T14:51:57.695Z,98906.30
2023-01-19T14:54:38.901Z,98904.45
2023-01-19T14:57:10.001Z,98903.01
2023-01-19T14:59:36.797Z,98904.73
2023-01-19T15:02:03.887Z,98903.91
2023-01-19T15:04:30.753Z,98906.91
2023-01-19T15:06:57.551Z,98903.52
2023-01-19T15:09:24.408Z,98901.71
2023-01-19T15:11:51.474Z,98900.55
2023-01-19T15:14:19.064Z,98888.99
2023-01-19T15:16:45.918Z,98895.22
2023-01-19T15:19:13.658Z,98883.48
2023-01-19T15:21:45.260Z,98895.30
2023-01-19T15:24:13.011Z,98892.09
2023-01-19T15:26:41.395Z,98891.99
2023-01-19T15:29:16.100Z,98897.41
2023-01-19T15:31:49.658Z,98900.89
2023-01-19T15:34:20.250Z,98902.92
2023-01-19T15:36:47.061Z,98897.89
2023-01-19T15:39:13.809Z,98895.42
2023-01-19T15:41:40.715Z,98890.35
2023-01-19T15:44:10.285Z,98901.73
2023-01-19T15:46:37.430Z,98902.72
2023-01-19T15:49:05.875Z,98895.69
2023-01-19T15:51:33.216Z,98887.66
2023-01-19T15:54:00.018Z,98888.35
2023-01-19T15:56:29.785Z,98893.34
2023-01-19T15:58:58.151Z,98890.42
2023-01-19T16:01:34.018Z,98895.31
2023-01-19T16:04:05.446Z,98903.60
2023-01-19T16:06:33.479Z,98901.84
2023-01-19T16:09:01.636Z,98904.14
2023-01-19T16:11:29.927Z,98903.67
2023-01-19T16:13:56.719Z,98907.42
2023-01-19T16:16:24.522Z,98912.19
2023-01-19T16:18:51.515Z,98915.70
2023-01-19T16:21:18.387Z,98910.95
2023-01-19T16:23:45.141Z,98909.09
2023-01-19T16:26:26.776Z,98914.23
2023-01-19T16:28:56.786Z,98914.14
2023-01-19T16:31:25.158Z,98913.33
2023-01-19T16:33:51.927Z,98910.35
2023-01-19T16:36:25.770Z,98911.05
2023-01-19T16:38:52.803Z,98911.50
2023-01-19T16:41:19.675Z,98909.11
2023-01-19T16:43:51.936Z,98905.14
2023-01-19T16:46:26.816Z,98903.39
2023-01-19T16:48:53.943Z,98901.68
2023-01-19T16:51:20.973Z,98899.52
2023-01-19T16:53:49.797Z,98899.06
2023-01-19T16:56:16.801Z,98900.16
2023-01-19T16:58:43.877Z,98905.55
2023-01-19T17:01:18.249Z,98901.58
2023-01-19T17:03:47.231Z,98897.67
2023-01-19T17:06:15.684Z,98896.32
2023-01-19T17:08:42.648Z,98893.79
2023-01-19T17:11:11.437Z,98882.16
2023-01-19T17:13:38.701Z,98880.70
2023-01-19T17:16:05.999Z,98884.75
2023-01-19T17:18:34.189Z,98890.46
2023-01-19T17:21:05.832Z,98896.13
2023-01-19T17:23:32.741Z,98899.66
2023-01-19T17:25:59.637Z,98899.11
2023-01-19T17:28:26.459Z,98901.14
2023-01-19T17:30:53.649Z,98900.95
2023-01-19T17:33:24.897Z,98897.64
2023-01-19T17:35:51.958Z,98893.16
2023-01-19T17:38:18.792Z,98890.82
2023-01-19T17:40:45.760Z,98887.08
2023-01-19T17:43:12.555Z,98885.93
2023-01-19T17:45:39.421Z,98885.77
2023-01-19T17:48:07.181Z,98894.72
2023-01-19T17:50:34.796Z,98889.79
2023-01-19T17:53:01.904Z,98888.39
2023-01-19T17:55:29.044Z,98892.14
2023-01-19T17:57:55.884Z,98890.55
2023-01-19T18:00:23.002Z,98890.58
2023-01-19T18:02:51.597Z,98889.38
2023-01-19T18:05:18.899Z,98885.33
2023-01-19T18:07:46.514Z,98887.02
2023-01-19T18:10:13.832Z,98885.42
2023-01-19T18:12:41.063Z,98890.52
2023-01-19T18:15:09.565Z,98896.95
2023-01-19T18:17:36.575Z,98893.52
2023-01-19T18:20:04.756Z,98892.52
2023-01-19T18:22:32.464Z,98894.29
2023-01-19T18:24:59.654Z,98884.53
2023-01-19T18:27:26.659Z,98891.38
2023-01-19T18:29:54.265Z,98889.15
2023-01-19T18:32:21.745Z,98888.58
2023-01-19T18:34:48.866Z,98888.89
2023-01-19T18:37:15.889Z,98888.33
2023-01-19T18:39:42.789Z,98893.09
2023-01-19T18:42:09.828Z,98887.15
2023-01-19T18:44:36.687Z,98885.30
2023-01-19T18:47:03.609Z,98893.86
2023-01-19T18:49:30.419Z,98901.05
2023-01-19T18:51:58.006Z,98891.71
2023-01-19T18:54:25.351Z,98896.20
2023-01-19T18:56:52.702Z,98894.77
2023-01-19T18:59:19.666Z,98895.27
2023-01-19T19:01:46.696Z,98909.42
2023-01-19T19:04:13.722Z,98901.59
2023-01-19T19:06:40.620Z,98892.54
2023-01-19T19:09:07.562Z,98901.88
2023-01-19T19:11:34.498Z,98895.98
2023-01-19T19:14:01.872Z,98907.88
2023-01-19T19:16:29.758Z,98914.64
2023-01-19T19:18:56.978Z,98900.30
2023-01-19T19:21:27.722Z,98908.68
2023-01-19T19:23:55.984Z,98902.05
2023-01-19T19:26:23.341Z,98914.70
2023-01-19T19:28:50.273Z,98910.42
2023-01-19T19:31:20.758Z,98910.08
2023-01-19T19:33:48.829Z,98912.49
2023-01-19T19:36:16.168Z,98915.64
2023-01-19T19:38:44.555Z,98921.17
2023-01-19T19:41:12.943Z,98912.52
2023-01-19T19:43:40.536Z,98911.80
2023-01-19T19:46:09.020Z,98917.59
2023-01-19T19:48:38.897Z,98913.27
2023-01-19T19:51:18.042Z,98918.23
2023-01-19T19:53:46.465Z,98911.62
2023-01-19T19:56:13.634Z,98912.69
2023-01-19T19:58:41.860Z,98917.73
2023-01-19T20:01:09.705Z,98925.45
2023-01-19T20:03:36.892Z,98932.06
2023-01-19T20:06:05.461Z,98931.42
2023-01-19T20:08:32.606Z,98921.02
2023-01-19T20:11:09.908Z,98928.98
2023-01-19T20:13:37.562Z,98929.37
2023-01-19T20:16:06.291Z,98924.80
2023-01-19T20:18:34.120Z,98933.92
2023-01-19T20:21:01.002Z,98930.01
2023-01-19T20:23:28.099Z,98948.96
2023-01-19T20:25:54.885Z,98941.59
2023-01-19T20:28:21.686Z,98942.57
2023-01-19T20:30:48.714Z,98944.61
2023-01-19T20:33:15.986Z,98944.63
2023-01-19T20:35:43.036Z,98940.80
2023-01-19T20:38:10.048Z,98950.14
2023-01-19T20:40:37.031Z,98952.29
2023-01-19T20:43:03.869Z,98955.96
2023-01-19T20:45:30.952Z,98950.77
2023-01-19T20:47:57.965Z,98949.14
2023-01-19T20:50:24.807Z,98956.88
2023-01-19T20:52:51.854Z,98952.41
2023-01-19T20:55:19.208Z,98961.20
2023-01-19T20:57:46.257Z,98960.70
2023-01-19T21:00:13.921Z,98962.66
2023-01-19T21:02:40.784Z,98968.95
2023-01-19T21:05:08.602Z,98964.29
2023-01-19T21:07:35.774Z,98969.48
2023-01-19T21:10:02.721Z,98971.03
2023-01-19T21:12:29.560Z,98975.54
2023-01-19T21:14:56.504Z,98976.80
2023-01-19T21:17:23.352Z,98981.61
2023-01-19T21:19:50.392Z,98975.88
2023-01-19T21:22:17.359Z,98984.11
2023-01-19T21:24:44.641Z,98978.78
2023-01-19T21:27:11.674Z,98983.46
2023-01-19T21:29:38.582Z,98985.27
2023-01-19T21:32:06.004Z,98984.64
2023-01-19T21:34:33.014Z,98984.14
2023-01-19T21:36:59.935Z,98987.02
2023-01-19T21:39:26.757Z,98999.50
2023-01-19T21:41:53.845Z,98995.88
2023-01-19T21:44:20.662Z,98997.48
2023-01-19T21:46:47.409Z,99004.64
2023-01-19T21:49:18.508Z,98990.54
2023-01-19T21:51:47.770Z,98993.80
2023-01-19T21:54:15.012Z,98994.52
2023-01-19T21:56:43.491Z,98995.60
2023-01-19T21:59:12.409Z,98994.63
2023-01-19T22:01:39.184Z,99009.20
2023-01-19T22:04:06.265Z,99010.23
2023-01-19T22:06:33.313Z,99012.56
2023-01-19T22:09:00.877Z,99021.67
2023-01-19T22:11:28.028Z,99021.03
2023-01-19T22:13:55.144Z,99015.47
2023-01-19T22:16:22.733Z,99017.33
2023-01-19T22:18:51.625Z,99026.61
2023-01-19T22:21:20.185Z,99047.41
2023-01-19T22:23:51.239Z,99048.79
2023-01-19T22:26:18.396Z,99050.27
2023-01-19T22:28:45.461Z,99043.32
2023-01-19T22:31:16.938Z,99047.36
2023-01-19T22:33:43.966Z,99058.91
2023-01-19T22:36:14.216Z,99060.46
2023-01-19T22:38:41.135Z,99051.98
2023-01-19T22:41:37.873Z,99056.61
2023-01-19T22:44:07.456Z,99061.81
2023-01-19T22:46:35.304Z,99068.23
2023-01-19T22:49:02.175Z,99062.16
2023-01-19T22:51:29.617Z,99072.12
2023-01-19T22:53:56.522Z,99065.24
2023-01-19T22:56:29.784Z,99065.02
2023-01-19T22:58:56.823Z,99057.16
2023-01-19T23:01:25.644Z,99058.66
2023-01-19T23:03:53.724Z,99061.65
2023-01-19T23:06:25.238Z,99058.42
2023-01-19T23:08:52.169Z,99060.78
2023-01-19T23:11:20.853Z,99059.35
2023-01-19T23:13:48.524Z,99063.94
2023-01-19T23:16:15.353Z,99070.92
2023-01-19T23:18:42.318Z,99076.57
2023-01-19T23:21:17.280Z,99073.58
2023-01-19T23:23:44.379Z,99070.00
2023-01-19T23:26:13.293Z,99071.96
2023-01-19T23:28:40.461Z,99075.58
2023-01-19T23:31:23.785Z,99073.34
2023-01-19T23:33:53.291Z,99077.13
2023-01-19T23:36:20.448Z,99073.27
2023-01-19T23:38:51.871Z,99079.27
2023-01-19T23:41:19.198Z,99086.98
2023-01-19T23:43:45.971Z,99081.61
2023-01-19T23:46:13.245Z,99087.44
2023-01-19T23:48:40.168Z,99086.36
2023-01-19T23:51:08.226Z,99081.48
2023-01-19T23:53:35.643Z,99082.74
2023-01-19T23:56:12.429Z,99085.55
2023-01-19T23:58:39.403Z,99089.94
